Time;durP1;ratioP1;P1;durP2;ratioP2;P2;SDS_P1;SDS_P2;PMS_P1;PMS_P2;Temp;Humidity;BMP_temperature;BMP_pressure;BME280_temperature;BME280_humidity;BME280_pressure;Samples;Min_cycle;Max_cycle;Signal;HPM_P1;HPM_P2
2022/04/15 00:01:23;;;;;;;14.57;9.30;;;13.00;99.90;;;;;;5078542;28;20159;-65
2022/04/15 00:03:50;;;;;;;14.77;9.50;;;13.00;99.90;;;;;;5077572;28;20201;-64
2022/04/15 00:06:16;;;;;;;15.80;10.40;;;13.00;99.90;;;;;;5077043;28;20164;-64
2022/04/15 00:08:42;;;;;;;12.63;8.87;;;13.00;99.90;;;;;;5076912;28;20603;-65
2022/04/15 00:11:09;;;;;;;13.37;9.53;;;13.00;99.90;;;;;;5076160;28;20163;-65
2022/04/15 00:13:35;;;;;;;15.83;9.73;;;13.00;99.90;;;;;;5076589;28;20176;-64
2022/04/15 00:16:02;;;;;;;16.03;9.70;;;12.90;99.90;;;;;;5058740;28;20171;-63
2022/04/15 00:18:28;;;;;;;17.07;9.40;;;13.00;99.90;;;;;;5076561;28;20569;-64
2022/04/15 00:20:54;;;;;;;16.60;9.83;;;12.90;99.90;;;;;;5076649;28;20202;-64
2022/04/15 00:23:22;;;;;;;13.90;10.00;;;13.00;99.90;;;;;;5059454;28;20202;-64
2022/04/15 00:25:48;;;;;;;16.77;10.47;;;12.80;99.90;;;;;;5077719;28;20159;-65
2022/04/15 00:28:14;;;;;;;16.20;10.70;;;12.90;99.90;;;;;;5075776;28;20171;-65
2022/04/15 00:30:40;;;;;;;14.23;9.70;;;12.80;99.90;;;;;;5075758;28;20159;-65
2022/04/15 00:33:06;;;;;;;13.27;9.97;;;12.80;99.90;;;;;;5058796;28;20179;-65
2022/04/15 00:35:31;;;;;;;13.47;9.43;;;12.70;99.90;;;;;;5077257;28;20156;-64
2022/04/15 00:37:57;;;;;;;15.50;9.30;;;12.70;99.90;;;;;;5076290;28;20284;-64
2022/04/15 00:40:23;;;;;;;17.00;11.20;;;12.70;99.90;;;;;;5077447;28;20200;-64
2022/04/15 00:42:48;;;;;;;14.93;11.00;;;12.70;99.90;;;;;;5058651;28;20612;-64
2022/04/15 00:45:14;;;;;;;22.47;14.83;;;12.80;99.90;;;;;;5058872;28;20187;-66
2022/04/15 00:47:53;;;;;;;49.57;21.70;;;12.70;99.90;;;;;;5079735;28;20164;-64
2022/04/15 00:50:40;;;;;;;27.77;15.80;;;12.80;99.90;;;;;;5083356;28;20210;-65
2022/04/15 00:53:10;;;;;;;36.60;17.73;;;12.80;99.90;;;;;;5054253;28;20569;-65
2022/04/15 00:55:38;;;;;;;35.47;16.57;;;12.80;99.90;;;;;;5054167;28;20187;-65
2022/04/15 00:58:05;;;;;;;23.37;13.03;;;12.80;99.90;;;;;;5054405;28;20160;-64
2022/04/15 01:00:34;;;;;;;17.27;10.13;;;12.80;99.90;;;;;;5053936;28;20161;-63
2022/04/15 01:03:03;;;;;;;14.80;9.20;;;12.80;99.90;;;;;;5054075;28;20709;-64
2022/04/15 01:05:29;;;;;;;13.07;8.70;;;12.70;99.90;;;;;;5054086;28;20167;-66
2022/04/15 01:07:56;;;;;;;14.77;9.30;;;12.70;99.90;;;;;;5053998;28;20183;-65
2022/04/15 01:10:22;;;;;;;12.93;8.33;;;12.70;99.90;;;;;;5053343;28;20671;-66
2022/04/15 01:12:53;;;;;;;14.60;8.77;;;12.70;99.90;;;;;;5053630;28;20171;-64
2022/04/15 01:15:20;;;;;;;13.37;9.17;;;12.70;99.90;;;;;;5053427;28;20503;-64
2022/04/15 01:17:45;;;;;;;13.90;8.67;;;12.70;99.90;;;;;;5053699;28;20184;-63
2022/04/15 01:20:12;;;;;;;12.87;9.50;;;12.70;99.90;;;;;;5054132;28;20248;-65
2022/04/15 01:22:41;;;;;;;13.50;9.17;;;12.70;99.90;;;;;;5055042;28;20211;-65
2022/04/15 01:25:08;;;;;;;13.37;9.13;;;12.70;99.90;;;;;;5054305;28;20172;-66
2022/04/15 01:27:41;;;;;;;13.03;9.00;;;12.70;99.90;;;;;;5053418;28;20255;-65
2022/04/15 01:30:14;;;;;;;11.50;8.60;;;12.70;99.90;;;;;;5053434;28;20580;-65
2022/04/15 01:32:40;;;;;;;12.80;9.60;;;12.80;99.90;;;;;;5053670;28;20168;-64
2022/04/15 01:35:07;;;;;;;18.37;9.30;;;12.90;99.90;;;;;;5053171;28;20247;-64
2022/04/15 01:37:34;;;;;;;14.43;9.67;;;12.80;99.90;;;;;;5053041;28;20251;-64
2022/04/15 01:40:00;;;;;;;13.93;9.77;;;12.90;99.90;;;;;;5052601;28;20604;-65
2022/04/15 01:42:26;;;;;;;13.47;9.07;;;13.00;99.90;;;;;;5052803;28;20196;-64
2022/04/15 01:44:51;;;;;;;12.30;9.17;;;13.00;99.90;;;;;;5053062;28;20187;-64
2022/04/15 01:47:17;;;;;;;15.10;9.93;;;12.90;99.90;;;;;;5053699;28;20160;-65
2022/04/15 01:49:44;;;;;;;14.47;9.53;;;13.00;99.90;;;;;;5053709;28;20160;-65
2022/04/15 01:52:09;;;;;;;15.43;10.00;;;13.00;99.90;;;;;;5053124;28;20174;-64
2022/04/15 01:54:35;;;;;;;17.27;9.83;;;13.10;99.90;;;;;;5052772;28;20220;-64
2022/04/15 01:57:01;;;;;;;16.17;10.87;;;13.10;99.90;;;;;;5053064;28;20182;-65
2022/04/15 01:59:27;;;;;;;17.40;9.50;;;13.00;99.90;;;;;;5053236;28;20235;-65
2022/04/15 02:01:54;;;;;;;21.07;11.57;;;13.00;99.90;;;;;;5053427;28;20172;-64
2022/04/15 02:04:25;;;;;;;18.03;9.83;;;13.00;99.90;;;;;;5035676;28;20179;-64
2022/04/15 02:06:51;;;;;;;16.60;10.57;;;13.00;99.90;;;;;;5053031;28;20168;-64
2022/04/15 02:09:17;;;;;;;17.77;11.50;;;13.00;99.90;;;;;;5052952;28;20596;-63
2022/04/15 02:11:43;;;;;;;17.97;10.97;;;13.00;99.90;;;;;;5052668;28;20218;-64
2022/04/15 02:14:09;;;;;;;20.00;11.83;;;13.00;99.90;;;;;;5053626;28;20172;-64
2022/04/15 02:16:36;;;;;;;17.87;11.57;;;13.00;99.90;;;;;;5035223;28;20684;-64
2022/04/15 02:19:02;;;;;;;18.67;11.23;;;13.00;99.90;;;;;;5053174;28;20180;-63
2022/04/15 02:21:27;;;;;;;17.10;10.67;;;13.00;99.90;;;;;;5053090;28;20164;-65
2022/04/15 02:23:53;;;;;;;17.57;12.27;;;13.00;99.90;;;;;;5052942;28;20283;-65
2022/04/15 02:26:19;;;;;;;24.73;12.47;;;13.00;99.90;;;;;;5052743;28;20160;-65
2022/04/15 02:28:44;;;;;;;21.13;11.80;;;13.00;99.90;;;;;;5053074;28;20176;-64
2022/04/15 02:31:10;;;;;;;17.93;11.90;;;13.00;99.90;;;;;;5052752;28;20161;-65
2022/04/15 02:33:36;;;;;;;19.07;12.03;;;12.90;99.90;;;;;;5052644;28;20222;-65
2022/04/15 02:36:01;;;;;;;19.23;12.13;;;12.90;99.90;;;;;;5053256;28;20259;-64
2022/04/15 02:38:27;;;;;;;20.60;12.87;;;12.90;99.90;;;;;;5052763;28;20227;-66
2022/04/15 02:40:52;;;;;;;19.20;11.23;;;12.90;99.90;;;;;;5052986;28;20219;-65
2022/04/15 02:43:18;;;;;;;23.37;13.53;;;12.90;99.90;;;;;;5034903;28;20681;-65
2022/04/15 02:45:44;;;;;;;25.40;12.80;;;12.90;99.90;;;;;;5053312;28;20172;-65
2022/04/15 02:48:10;;;;;;;22.80;13.17;;;12.90;99.90;;;;;;5054915;28;20165;-63
2022/04/15 02:50:37;;;;;;;20.47;12.57;;;12.90;99.90;;;;;;5053209;28;20179;-63
2022/04/15 02:53:03;;;;;;;22.00;13.33;;;12.90;99.90;;;;;;5055384;28;20237;-63
2022/04/15 02:55:29;;;;;;;21.90;12.70;;;12.80;99.90;;;;;;5056153;28;20619;-64
2022/04/15 02:57:54;;;;;;;20.77;13.20;;;12.80;99.90;;;;;;5056478;28;20187;-63
2022/04/15 03:00:20;;;;;;;22.73;13.40;;;12.80;99.90;;;;;;5038399;28;20228;-64
2022/04/15 03:02:45;;;;;;;20.23;12.37;;;12.70;99.90;;;;;;5039978;28;20214;-64
2022/04/15 03:05:11;;;;;;;19.67;13.13;;;12.70;99.90;;;;;;5057683;28;20620;-65
2022/04/15 03:07:38;;;;;;;18.87;12.53;;;12.70;99.90;;;;;;5058196;28;20172;-65
2022/04/15 03:10:05;;;;;;;20.73;13.30;;;12.60;99.90;;;;;;5058607;28;20164;-63
2022/04/15 03:12:35;;;;;;;22.50;12.90;;;12.60;99.90;;;;;;5056369;28;20176;-64
2022/04/15 03:15:05;;;;;;;25.10;13.40;;;12.50;99.90;;;;;;5057112;28;20187;-64
2022/04/15 03:17:33;;;;;;;19.73;13.07;;;12.50;99.90;;;;;;5056291;28;20639;-63
2022/04/15 03:20:02;;;;;;;23.57;15.00;;;12.50;99.90;;;;;;5057117;28;20168;-64
2022/04/15 03:22:28;;;;;;;23.90;13.43;;;12.50;99.90;;;;;;5055961;28;20210;-65
2022/04/15 03:24:54;;;;;;;24.40;14.00;;;12.50;99.90;;;;;;5038149;28;20271;-64
2022/04/15 03:27:19;;;;;;;23.77;12.77;;;12.50;99.90;;;;;;5055778;28;20196;-64
2022/04/15 03:29:45;;;;;;;23.90;14.40;;;12.50;99.90;;;;;;5055662;28;20244;-65
2022/04/15 03:32:11;;;;;;;22.43;13.90;;;12.50;99.90;;;;;;5055955;28;20172;-64
2022/04/15 03:34:36;;;;;;;24.93;14.87;;;12.50;99.90;;;;;;5055769;28;20176;-63
2022/04/15 03:37:03;;;;;;;20.20;13.43;;;12.60;99.90;;;;;;5055784;28;20180;-64
2022/04/15 03:39:29;;;;;;;25.10;14.17;;;12.50;99.90;;;;;;5055155;28;20275;-63
2022/04/15 03:41:55;;;;;;;21.97;13.93;;;12.50;99.90;;;;;;5055587;28;20658;-64
2022/04/15 03:44:20;;;;;;;21.73;12.63;;;12.60;99.90;;;;;;5056123;28;20596;-65
2022/04/15 03:46:46;;;;;;;22.77;13.60;;;12.50;99.90;;;;;;5055750;28;20156;-65
2022/04/15 03:49:12;;;;;;;22.80;14.00;;;12.50;99.90;;;;;;5055408;28;20182;-64
2022/04/15 03:51:37;;;;;;;25.77;14.17;;;12.50;99.90;;;;;;5055693;28;20172;-64
2022/04/15 03:54:03;;;;;;;21.27;13.80;;;12.40;99.90;;;;;;5055582;28;20603;-64
2022/04/15 03:56:29;;;;;;;22.27;13.57;;;12.50;99.90;;;;;;5055346;28;20164;-65
2022/04/15 03:58:54;;;;;;;22.17;13.53;;;12.40;99.90;;;;;;5055359;28;20184;-64
2022/04/15 04:01:20;;;;;;;25.40;14.30;;;12.40;99.90;;;;;;5055624;28;20207;-65
2022/04/15 04:03:45;;;;;;;22.20;13.47;;;12.50;99.90;;;;;;5055008;28;20195;-65
2022/04/15 04:06:11;;;;;;;25.63;14.93;;;12.40;99.90;;;;;;5055219;28;20176;-64
2022/04/15 04:08:37;;;;;;;25.60;15.23;;;12.40;99.90;;;;;;5055450;28;20210;-65
2022/04/15 04:11:02;;;;;;;24.23;14.20;;;12.50;99.90;;;;;;5056527;28;20176;-64
2022/04/15 04:13:28;;;;;;;23.67;13.27;;;12.40;99.90;;;;;;5056390;28;20172;-65
2022/04/15 04:15:54;;;;;;;21.97;14.07;;;12.40;99.90;;;;;;5038111;28;20273;-64
2022/04/15 04:18:21;;;;;;;23.20;14.40;;;12.40;99.90;;;;;;5055643;28;20531;-67
2022/04/15 04:20:48;;;;;;;29.17;14.87;;;12.40;99.90;;;;;;5056728;28;20210;-65
2022/04/15 04:23:14;;;;;;;25.33;14.07;;;12.30;99.90;;;;;;5057286;28;20195;-66
2022/04/15 04:25:39;;;;;;;22.33;14.53;;;12.30;99.90;;;;;;5057826;28;20172;-65
2022/04/15 04:28:05;;;;;;;25.57;14.77;;;12.30;99.90;;;;;;5055602;28;20190;-64
2022/04/15 04:30:31;;;;;;;23.67;14.90;;;12.40;99.90;;;;;;5055178;28;20180;-65
2022/04/15 04:32:59;;;;;;;23.80;14.60;;;12.30;99.90;;;;;;5057736;28;20229;-65
2022/04/15 04:35:25;;;;;;;22.43;14.57;;;12.40;99.90;;;;;;5058310;28;20156;-64
2022/04/15 04:37:51;;;;;;;23.73;14.17;;;12.40;99.90;;;;;;5059892;28;20311;-64
2022/04/15 04:40:17;;;;;;;25.83;15.60;;;12.50;99.90;;;;;;5058913;28;20200;-66
2022/04/15 04:42:46;;;;;;;28.07;16.40;;;12.50;99.90;;;;;;5041717;28;20200;-66
2022/04/15 04:45:12;;;;;;;22.20;13.93;;;12.50;99.90;;;;;;5057729;28;20199;-63
2022/04/15 04:47:40;;;;;;;24.33;15.50;;;12.50;99.90;;;;;;5056729;28;20164;-65
2022/04/15 04:50:08;;;;;;;26.33;15.47;;;12.50;99.90;;;;;;5054661;28;20168;-64
2022/04/15 04:52:35;;;;;;;24.87;15.30;;;12.50;99.90;;;;;;5054464;28;20164;-65
2022/04/15 04:55:00;;;;;;;23.57;15.40;;;12.50;99.90;;;;;;5053844;28;20206;-64
2022/04/15 04:57:26;;;;;;;25.37;16.00;;;12.50;99.90;;;;;;5053880;28;20160;-65
2022/04/15 04:59:51;;;;;;;29.97;16.63;;;12.50;99.90;;;;;;5054133;28;20239;-66
2022/04/15 05:02:17;;;;;;;29.87;16.80;;;12.40;99.90;;;;;;5053726;28;20278;-65
2022/04/15 05:04:42;;;;;;;28.73;17.23;;;12.50;99.90;;;;;;5054039;28;20168;-65
2022/04/15 05:07:08;;;;;;;25.37;15.90;;;12.50;99.90;;;;;;5054285;28;20160;-64
2022/04/15 05:09:34;;;;;;;27.43;16.07;;;12.40;99.90;;;;;;5054211;28;20175;-64
2022/04/15 05:11:59;;;;;;;26.63;16.30;;;12.40;99.90;;;;;;5053610;28;20172;-64
2022/04/15 05:14:25;;;;;;;27.57;17.07;;;12.40;99.90;;;;;;5053548;28;20168;-64
2022/04/15 05:16:50;;;;;;;29.00;18.77;;;12.30;99.90;;;;;;5054514;28;20619;-65
2022/04/15 05:19:16;;;;;;;25.73;15.30;;;12.40;99.90;;;;;;5054429;28;20506;-65
2022/04/15 05:21:42;;;;;;;24.63;16.80;;;12.30;99.90;;;;;;5054455;28;20164;-65
2022/04/15 05:24:10;;;;;;;28.97;17.33;;;12.30;99.90;;;;;;5054773;28;20207;-65
2022/04/15 05:26:36;;;;;;;29.33;17.77;;;12.20;99.90;;;;;;5055159;28;20168;-66
2022/04/15 05:29:02;;;;;;;26.87;16.33;;;12.20;99.90;;;;;;5055197;28;20171;-64
2022/04/15 05:31:28;;;;;;;30.57;16.37;;;12.20;99.90;;;;;;5037642;28;20313;-65
2022/04/15 05:33:54;;;;;;;22.93;15.23;;;12.10;99.90;;;;;;5056051;28;20172;-64
2022/04/15 05:36:19;;;;;;;27.53;16.60;;;12.00;99.90;;;;;;5056087;28;20273;-64
2022/04/15 05:38:45;;;;;;;23.33;15.50;;;12.00;99.90;;;;;;5062639;28;20249;-65
2022/04/15 05:41:11;;;;;;;25.60;15.93;;;12.00;99.90;;;;;;5073868;28;20622;-65
2022/04/15 05:43:37;;;;;;;23.13;15.20;;;12.00;99.90;;;;;;5073525;28;20231;-65
2022/04/15 05:46:03;;;;;;;20.13;13.63;;;12.00;99.90;;;;;;5071918;28;20224;-64
2022/04/15 05:48:29;;;;;;;19.63;12.10;;;12.00;99.90;;;;;;5073441;28;20167;-65
2022/04/15 05:50:54;;;;;;;15.33;10.67;;;11.90;99.90;;;;;;5073272;28;20168;-65
2022/04/15 05:53:20;;;;;;;12.43;8.43;;;11.90;99.90;;;;;;5072836;28;20636;-64
2022/04/15 05:55:46;;;;;;;13.63;9.47;;;11.80;99.90;;;;;;5072003;28;20675;-64
2022/04/15 05:58:11;;;;;;;14.50;9.30;;;11.70;99.90;;;;;;5073473;28;20672;-65
2022/04/15 06:00:38;;;;;;;11.73;8.27;;;11.60;99.90;;;;;;5071701;28;20621;-64
2022/04/15 06:03:03;;;;;;;12.67;8.60;;;11.50;99.90;;;;;;5073041;28;20249;-64
2022/04/15 06:05:29;;;;;;;11.40;8.17;;;11.60;99.90;;;;;;5073464;28;20160;-64
2022/04/15 06:07:55;;;;;;;14.00;8.87;;;11.60;99.90;;;;;;5073264;28;20164;-64
2022/04/15 06:10:20;;;;;;;13.67;9.83;;;11.50;99.90;;;;;;5073100;28;20548;-65
2022/04/15 06:13:02;;;;;;;14.63;9.27;;;11.60;99.90;;;;;;5072851;28;20544;-63
2022/04/15 06:15:32;;;;;;;16.20;10.57;;;11.60;99.90;;;;;;5072896;28;20550;-64
2022/04/15 06:17:59;;;;;;;13.63;9.10;;;11.50;99.90;;;;;;5072715;28;20191;-64
2022/04/15 06:20:25;;;;;;;17.30;10.70;;;11.60;99.90;;;;;;5073033;28;20172;-64
2022/04/15 06:22:51;;;;;;;15.50;9.63;;;11.60;99.90;;;;;;5072429;28;20229;-64
2022/04/15 06:25:16;;;;;;;16.60;10.90;;;11.40;99.90;;;;;;5072349;28;20168;-65
2022/04/15 06:27:42;;;;;;;14.47;9.23;;;11.50;99.90;;;;;;5074609;28;20164;-65
2022/04/15 06:30:08;;;;;;;17.77;9.57;;;11.40;99.90;;;;;;5076706;28;20632;-64
2022/04/15 06:32:34;;;;;;;11.17;8.07;;;11.20;99.90;;;;;;5075770;28;20228;-64
2022/04/15 06:35:00;;;;;;;11.90;7.47;;;11.20;99.90;;;;;;5076574;28;20612;-64
2022/04/15 06:37:26;;;;;;;10.20;7.20;;;10.90;99.90;;;;;;5072675;28;20302;-63
2022/04/15 06:39:51;;;;;;;11.60;7.27;;;10.90;99.90;;;;;;5056329;28;20173;-63
2022/04/15 06:42:21;;;;;;;10.43;7.07;;;10.90;99.90;;;;;;5056412;28;20160;-64
2022/04/15 06:44:47;;;;;;;8.67;6.57;;;10.90;99.90;;;;;;5056066;28;20164;-64
2022/04/15 06:47:13;;;;;;;7.70;5.77;;;10.90;99.90;;;;;;5056610;28;20237;-62
2022/04/15 06:49:38;;;;;;;10.13;5.97;;;10.90;99.90;;;;;;5055888;28;20622;-64
2022/04/15 06:52:05;;;;;;;10.80;6.07;;;11.00;99.90;;;;;;5056334;28;20486;-64
2022/04/15 06:54:30;;;;;;;8.13;5.50;;;10.90;99.90;;;;;;5056320;28;20168;-63
2022/04/15 06:56:56;;;;;;;8.83;5.20;;;10.90;99.90;;;;;;5056158;28;20221;-64
2022/04/15 06:59:22;;;;;;;8.03;5.37;;;10.90;99.90;;;;;;5056918;28;20208;-64
2022/04/15 07:01:47;;;;;;;10.03;5.77;;;11.10;99.90;;;;;;5057515;28;20211;-63
2022/04/15 07:04:13;;;;;;;8.90;5.27;;;10.90;99.90;;;;;;5056513;28;20532;-64
2022/04/15 07:06:39;;;;;;;6.47;4.90;;;10.90;99.90;;;;;;5056395;28;20164;-64
2022/04/15 07:09:04;;;;;;;6.77;5.60;;;10.90;99.90;;;;;;5056400;28;20169;-64
2022/04/15 07:11:30;;;;;;;7.10;5.10;;;10.90;99.90;;;;;;5056055;28;20290;-63
2022/04/15 07:13:56;;;;;;;7.07;4.87;;;10.90;99.90;;;;;;5055643;28;20172;-64
2022/04/15 07:16:21;;;;;;;9.73;5.70;;;10.90;99.90;;;;;;5055612;28;20172;-63
2022/04/15 07:18:47;;;;;;;6.97;4.80;;;10.90;99.90;;;;;;5055891;28;20213;-63
2022/04/15 07:21:12;;;;;;;13.20;5.27;;;11.00;99.90;;;;;;5055933;28;20486;-64
2022/04/15 07:23:38;;;;;;;8.93;4.43;;;10.90;99.90;;;;;;5056008;28;20273;-64
2022/04/15 07:26:03;;;;;;;7.20;4.67;;;10.90;99.90;;;;;;5056098;28;20164;-63
2022/04/15 07:28:29;;;;;;;7.33;5.07;;;11.00;99.90;;;;;;5055799;28;20583;-64
2022/04/15 07:30:55;;;;;;;5.33;4.23;;;10.90;99.90;;;;;;5056056;28;20173;-63
2022/04/15 07:33:20;;;;;;;5.83;3.87;;;11.00;99.90;;;;;;5055653;28;20255;-65
2022/04/15 07:35:46;;;;;;;6.00;4.10;;;10.90;99.90;;;;;;5056019;28;20164;-63
2022/04/15 07:38:12;;;;;;;5.93;4.00;;;10.70;99.90;;;;;;5055008;28;20278;-65
2022/04/15 07:40:38;;;;;;;8.57;4.20;;;10.60;99.90;;;;;;5056496;28;20160;-65
2022/04/15 07:43:03;;;;;;;10.13;4.73;;;10.60;99.90;;;;;;5055616;28;20245;-65
2022/04/15 07:45:29;;;;;;;6.10;3.70;;;10.40;99.90;;;;;;5055806;28;20161;-64
2022/04/15 07:47:55;;;;;;;7.10;4.20;;;10.50;99.90;;;;;;5055646;28;20175;-64
2022/04/15 07:50:25;;;;;;;6.70;3.73;;;10.50;99.90;;;;;;5055724;28;20172;-63
2022/04/15 07:52:58;;;;;;;47.97;25.33;;;10.30;99.90;;;;;;5037582;28;20179;-67
2022/04/15 07:55:24;;;;;;;9.20;4.73;;;10.40;99.90;;;;;;5055618;28;20179;-66
2022/04/15 07:57:50;;;;;;;5.73;3.63;;;10.40;99.90;;;;;;5055722;28;20503;-64
2022/04/15 08:00:16;;;;;;;5.50;3.50;;;10.60;99.90;;;;;;5055027;28;20606;-64
2022/04/15 08:02:42;;;;;;;4.63;3.07;;;10.50;99.90;;;;;;5036588;28;20207;-65
2022/04/15 08:05:08;;;;;;;5.07;3.47;;;10.40;99.90;;;;;;5055284;28;20171;-64
2022/04/15 08:07:34;;;;;;;7.63;3.80;;;10.50;99.90;;;;;;5054672;28;20543;-64
2022/04/15 08:10:00;;;;;;;20.17;10.17;;;10.40;99.90;;;;;;5054877;28;20247;-73
2022/04/15 08:12:26;;;;;;;11.57;6.37;;;10.80;99.90;;;;;;5036834;28;20208;-73
2022/04/15 08:14:52;;;;;;;33.10;16.97;;;11.30;99.90;;;;;;5054832;28;20199;-73
2022/04/15 08:17:18;;;;;;;26.10;15.47;;;11.60;99.90;;;;;;5055095;28;20338;-72
2022/04/15 08:19:44;;;;;;;23.03;13.50;;;11.40;99.90;;;;;;5054809;28;20224;-74
2022/04/15 08:22:10;;;;;;;22.63;12.70;;;11.60;99.90;;;;;;5054637;28;20214;-66
2022/04/15 08:24:42;;;;;;;4.60;3.30;;;12.00;99.90;;;;;;5057266;28;20165;-63
2022/04/15 08:27:09;;;;;;;6.63;3.57;;;11.20;99.90;;;;;;5055247;28;20517;-64
2022/04/15 08:29:39;;;;;;;5.67;2.60;;;11.00;99.90;;;;;;5054267;28;20193;-63
2022/04/15 08:32:13;;;;;;;6.77;4.47;;;10.80;99.90;;;;;;5054233;28;20164;-64
2022/04/15 08:34:40;;;;;;;7.47;3.80;;;11.50;99.90;;;;;;5054116;28;20220;-64
2022/04/15 08:37:05;;;;;;;4.17;2.93;;;11.20;99.90;;;;;;5054184;28;20526;-63
2022/04/15 08:39:31;;;;;;;4.07;3.07;;;10.80;99.90;;;;;;5054417;28;20179;-65
2022/04/15 08:41:58;;;;;;;5.80;3.63;;;10.80;99.90;;;;;;5053917;28;20612;-65
2022/04/15 08:44:25;;;;;;;7.23;3.20;;;10.70;99.90;;;;;;5036866;28;20315;-64
2022/04/15 08:46:51;;;;;;;5.20;2.97;;;10.60;99.90;;;;;;5054780;28;20290;-64
2022/04/15 08:49:19;;;;;;;3.93;3.30;;;10.80;99.90;;;;;;5054675;28;20164;-66
2022/04/15 08:51:52;;;;;;;4.53;3.37;;;10.70;99.90;;;;;;5055008;28;20538;-63
2022/04/15 08:54:20;;;;;;;3.83;3.43;;;10.70;99.90;;;;;;5055120;28;20247;-63
2022/04/15 08:56:47;;;;;;;3.90;3.10;;;10.60;99.90;;;;;;5054754;28;20164;-63
2022/04/15 08:59:14;;;;;;;4.80;3.70;;;10.50;99.90;;;;;;5055374;28;20196;-64
2022/04/15 09:01:40;;;;;;;4.13;3.23;;;10.50;99.90;;;;;;5054613;28;20190;-66
2022/04/15 09:04:05;;;;;;;5.13;3.20;;;10.50;99.90;;;;;;5055265;28;20227;-63
2022/04/15 09:06:31;;;;;;;4.17;2.90;;;10.50;99.90;;;;;;5053944;28;20165;-65
2022/04/15 09:09:08;;;;;;;5.43;3.37;;;10.60;99.90;;;;;;5054683;28;20171;-65
2022/04/15 09:11:38;;;;;;;4.17;3.40;;;10.60;99.90;;;;;;5053553;28;20653;-64
2022/04/15 09:14:12;;;;;;;3.13;2.63;;;10.50;99.90;;;;;;5053844;28;20621;-65
2022/04/15 09:16:47;;;;;;;4.17;3.20;;;10.50;99.90;;;;;;5053351;28;20184;-65
2022/04/15 09:19:14;;;;;;;3.60;3.00;;;10.80;99.90;;;;;;5056757;28;20160;-64
2022/04/15 09:21:42;;;;;;;2.93;2.63;;;10.80;99.90;;;;;;5057838;28;20489;-64
2022/04/15 09:24:08;;;;;;;2.83;2.30;;;10.60;99.90;;;;;;5037257;28;20204;-64
2022/04/15 09:26:36;;;;;;;2.93;2.30;;;10.60;99.90;;;;;;5054059;28;20163;-64
2022/04/15 09:29:02;;;;;;;3.90;3.03;;;10.50;99.90;;;;;;5053442;28;20168;-64
2022/04/15 09:31:28;;;;;;;3.57;2.33;;;10.40;99.90;;;;;;5053561;28;20592;-63
2022/04/15 09:33:55;;;;;;;4.80;2.57;;;10.50;99.90;;;;;;5053323;28;20208;-64
2022/04/15 09:36:26;;;;;;;3.20;1.87;;;10.60;99.90;;;;;;5053803;28;20183;-64
2022/04/15 09:38:56;;;;;;;2.50;1.93;;;10.70;99.90;;;;;;5053051;28;20232;-65
2022/04/15 09:41:23;;;;;;;4.03;2.70;;;10.60;99.90;;;;;;5053438;28;20251;-64
2022/04/15 09:43:53;;;;;;;4.90;2.63;;;10.50;99.90;;;;;;5053632;28;20195;-64
2022/04/15 09:46:20;;;;;;;2.60;2.20;;;10.60;99.90;;;;;;5053117;28;20558;-66
2022/04/15 09:49:08;;;;;;;28.13;14.97;;;10.80;99.90;;;;;;5057824;28;20175;-79
2022/04/15 09:51:54;;;;;;;3.43;2.47;;;11.30;99.90;;;;;;5053847;28;20257;-63
2022/04/15 09:54:30;;;;;;;2.50;1.90;;;11.10;99.90;;;;;;5035661;28;20223;-63
2022/04/15 09:56:58;;;;;;;3.40;2.13;;;11.00;99.90;;;;;;5053707;28;20160;-63
2022/04/15 09:59:25;;;;;;;2.90;1.90;;;10.90;99.90;;;;;;5036292;28;20222;-64
2022/04/15 10:02:00;;;;;;;2.40;1.87;;;11.00;99.90;;;;;;5055525;28;20160;-64
2022/04/15 10:04:28;;;;;;;2.37;1.83;;;10.90;99.90;;;;;;5057337;28;20520;-64
2022/04/15 10:06:54;;;;;;;3.23;1.87;;;10.80;99.90;;;;;;5057691;28;20649;-65
2022/04/15 10:09:20;;;;;;;2.13;1.43;;;10.80;99.90;;;;;;5057290;28;20162;-63
2022/04/15 10:11:47;;;;;;;2.67;2.00;;;10.70;99.90;;;;;;5057051;28;20161;-65
2022/04/15 10:14:16;;;;;;;2.40;1.63;;;10.70;99.90;;;;;;5057367;28;20207;-64
2022/04/15 10:16:43;;;;;;;1.93;1.77;;;10.80;99.90;;;;;;5056846;28;20157;-64
2022/04/15 10:19:10;;;;;;;4.53;1.80;;;10.70;99.90;;;;;;5056665;28;20256;-64
2022/04/15 10:21:39;;;;;;;2.60;1.97;;;10.80;99.90;;;;;;5057424;28;20160;-63
2022/04/15 10:24:08;;;;;;;2.23;2.00;;;10.80;99.90;;;;;;5057266;28;20199;-63
2022/04/15 10:26:42;;;;;;;4.17;2.20;;;10.60;99.90;;;;;;5056922;28;20156;-64
2022/04/15 10:29:11;;;;;;;1.63;1.47;;;10.60;99.90;;;;;;5056901;28;20185;-63
2022/04/15 10:31:46;;;;;;;2.50;1.87;;;10.50;99.90;;;;;;5056540;28;20618;-63
2022/04/15 10:34:14;;;;;;;1.83;1.70;;;10.40;99.90;;;;;;5056228;28;20270;-64
2022/04/15 10:37:00;;;;;;;2.43;1.83;;;10.50;99.90;;;;;;5057073;28;20210;-62
2022/04/15 10:39:27;;;;;;;4.50;2.63;;;10.50;99.90;;;;;;5076229;28;20675;-64
2022/04/15 10:41:56;;;;;;;20.53;10.97;;;10.70;99.90;;;;;;5057968;28;20179;-64
2022/04/15 10:44:37;;;;;;;13.43;7.73;;;10.70;99.90;;;;;;5076052;28;20219;-63
2022/04/15 10:47:23;;;;;;;2.27;1.70;;;10.60;99.90;;;;;;5077010;28;20582;-64
2022/04/15 10:49:54;;;;;;;25.90;13.17;;;10.70;99.90;;;;;;5075843;28;20494;-63
2022/04/15 10:52:24;;;;;;;4.57;2.53;;;10.90;99.90;;;;;;5076605;28;20159;-62
2022/04/15 10:55:00;;;;;;;2.17;1.80;;;10.60;99.90;;;;;;5076369;28;20160;-62
2022/04/15 10:57:41;;;;;;;3.90;2.00;;;10.50;99.90;;;;;;5076542;28;20206;-62
2022/04/15 11:03:31;;;;;;;2.30;1.70;;;10.40;99.90;;;;;;5075987;28;20299;-63
2022/04/15 11:05:59;;;;;;;2.50;1.87;;;10.70;99.90;;;;;;5072506;28;20160;-64
2022/04/15 11:08:26;;;;;;;2.30;1.97;;;10.60;99.90;;;;;;5076435;28;20599;-63
2022/04/15 11:10:54;;;;;;;2.13;1.93;;;10.60;99.90;;;;;;5076283;28;20316;-64
2022/04/15 11:13:22;;;;;;;2.50;2.17;;;10.70;99.90;;;;;;5076052;28;20176;-63
2022/04/15 11:16:13;;;;;;;3.73;2.27;;;10.70;99.90;;;;;;5076250;28;20168;-64
2022/04/15 11:18:48;;;;;;;10.33;5.80;;;11.00;99.90;;;;;;5063499;28;20193;-62
2022/04/15 11:21:21;;;;;;;2.37;1.77;;;11.10;99.90;;;;;;5075782;28;20250;-62
2022/04/15 11:23:50;;;;;;;2.17;1.97;;;11.00;99.90;;;;;;5057737;28;20204;-64
2022/04/15 11:26:16;;;;;;;3.13;2.20;;;11.00;99.90;;;;;;5057970;28;20493;-78
2022/04/15 11:28:45;;;;;;;111.10;36.30;;;11.10;99.90;;;;;;5076794;28;20160;-79
2022/04/15 11:31:25;;;;;;;3.47;2.27;;;12.40;99.90;;;;;;5057238;28;20256;-63
2022/04/15 11:33:52;;;;;;;1.87;1.70;;;11.60;99.90;;;;;;5057692;28;20345;-65
2022/04/15 11:36:19;;;;;;;3.10;2.13;;;11.30;99.90;;;;;;5075455;28;20179;-64
2022/04/15 11:38:45;;;;;;;2.10;1.90;;;11.10;99.90;;;;;;5074980;28;20218;-64
2022/04/15 11:41:16;;;;;;;5.03;2.43;;;11.10;99.90;;;;;;5075458;28;20192;-64
2022/04/15 11:43:48;;;;;;;2.50;2.20;;;11.00;99.90;;;;;;5056840;28;20549;-63
2022/04/15 11:46:13;;;;;;;2.33;2.10;;;11.00;99.90;;;;;;5075156;28;20167;-63
2022/04/15 11:48:39;;;;;;;4.43;2.67;;;11.00;99.90;;;;;;5057861;28;20176;-64
2022/04/15 11:51:04;;;;;;;3.73;2.80;;;11.20;99.90;;;;;;5075895;28;20165;-63
2022/04/15 11:53:30;;;;;;;3.60;2.40;;;11.50;99.90;;;;;;5075487;28;20168;-65
2022/04/15 11:55:58;;;;;;;3.23;2.07;;;11.60;99.90;;;;;;5075744;28;20200;-63
2022/04/15 11:58:30;;;;;;;45.07;22.87;;;11.70;99.90;;;;;;5077080;28;20174;-66
2022/04/15 12:00:57;;;;;;;7.07;4.33;;;11.80;99.90;;;;;;5076734;28;20174;-67
2022/04/15 12:03:24;;;;;;;2.57;2.07;;;11.70;99.90;;;;;;5059435;28;20235;-63
2022/04/15 12:05:51;;;;;;;2.43;2.23;;;11.70;99.90;;;;;;5076706;28;20175;-65
2022/04/15 12:08:18;;;;;;;2.80;2.17;;;11.80;99.90;;;;;;5076858;28;20561;-64
2022/04/15 12:10:45;;;;;;;3.00;2.17;;;11.70;99.90;;;;;;5077439;28;20159;-64
2022/04/15 12:13:12;;;;;;;2.43;1.77;;;11.60;99.90;;;;;;5079125;28;20166;-64
2022/04/15 12:15:38;;;;;;;2.20;1.77;;;11.50;99.90;;;;;;5079449;28;20158;-64
2022/04/15 12:18:05;;;;;;;2.10;1.90;;;11.40;99.90;;;;;;5077948;28;20655;-65
2022/04/15 12:20:38;;;;;;;2.50;2.07;;;11.40;99.90;;;;;;5077653;28;20156;-64
2022/04/15 12:23:05;;;;;;;2.30;1.93;;;11.50;99.90;;;;;;5074079;28;20203;-63
2022/04/15 12:30:59;;;;;;;3.47;2.50;;;11.50;99.90;;;;;;5074239;28;20198;-63
2022/04/15 12:33:25;;;;;;;6.40;2.40;;;11.20;99.90;;;;;;5074249;28;20168;-64
2022/04/15 12:36:01;;;;;;;2.23;2.03;;;11.10;99.90;;;;;;5074192;28;20160;-65
2022/04/15 12:38:28;;;;;;;3.07;2.60;;;11.00;99.90;;;;;;5075361;28;20219;-65
2022/04/15 12:41:09;;;;;;;3.60;2.40;;;10.90;99.90;;;;;;5074599;28;20622;-64
2022/04/15 12:43:34;;;;;;;4.07;2.63;;;11.00;99.90;;;;;;5073691;28;20191;-64
2022/04/15 12:46:00;;;;;;;2.30;2.10;;;11.10;99.90;;;;;;5074056;28;20209;-65